Time;durP1;ratioP1;P1;durP2;ratioP2;P2;SDS_P1;SDS_P2;PMS_P1;PMS_P2;Temp;Humidity;BMP_temperature;BMP_pressure;BME280_temperature;BME280_humidity;BME280_pressure;Samples;Min_cycle;Max_cycle;Signal;HPM_P1;HPM_P2
2021/10/04 00:00:31;;;;;;;0.40;0.20;;;;;;;13.17;68.72;100553.38;111388;1193;94184;-76
2021/10/04 00:02:58;;;;;;;0.40;0.20;;;;;;;13.17;68.79;100556.41;111128;1195;139308;-76
2021/10/04 00:05:24;;;;;;;0.40;0.20;;;;;;;13.20;68.64;100556.12;111378;1195;94039;-76
2021/10/04 00:07:51;;;;;;;0.40;0.20;;;;;;;13.23;68.64;100550.67;111396;1193;94180;-76
2021/10/04 00:10:18;;;;;;;0.40;0.20;;;;;;;13.25;68.53;100551.33;111420;1193;138984;-75
2021/10/04 00:12:45;;;;;;;0.40;0.20;;;;;;;13.25;68.47;100545.06;111365;1195;94050;-76
2021/10/04 00:15:15;;;;;;;0.40;0.20;;;;;;;13.27;68.51;100547.13;111269;1193;137777;-76
2021/10/04 00:17:42;;;;;;;0.40;0.20;;;;;;;13.29;68.40;100547.08;111484;1195;108261;-75
2021/10/04 00:20:11;;;;;;;0.40;0.20;;;;;;;13.27;68.30;100553.72;111369;1193;95026;-76
2021/10/04 00:22:38;;;;;;;0.40;0.20;;;;;;;13.27;68.37;100548.91;111178;1195;137564;-75
2021/10/04 00:25:07;;;;;;;0.40;0.20;;;;;;;13.25;68.41;100546.67;111405;1193;108739;-75
2021/10/04 00:27:33;;;;;;;0.40;0.20;;;;;;;13.28;68.43;100546.92;111323;1195;138761;-76
2021/10/04 00:30:06;;;;;;;0.40;0.20;;;;;;;13.28;68.29;100550.15;111250;1195;93965;-77
2021/10/04 00:32:37;;;;;;;0.40;0.20;;;;;;;13.33;68.24;100549.07;111385;1195;138210;-76
2021/10/04 00:35:04;;;;;;;0.40;0.20;;;;;;;13.36;68.06;100546.65;111393;1194;108992;-75
2021/10/04 00:37:32;;;;;;;0.40;0.20;;;;;;;13.42;67.90;100546.82;111386;1196;108485;-75
2021/10/04 00:39:59;;;;;;;0.40;0.20;;;;;;;13.45;67.73;100544.56;111302;1196;138150;-75
2021/10/04 00:42:25;;;;;;;0.40;0.20;;;;;;;13.41;67.74;100544.02;111488;1193;93963;-75
2021/10/04 00:44:52;;;;;;;0.40;0.20;;;;;;;13.33;67.93;100542.64;111356;1194;137495;-74
2021/10/04 00:47:19;;;;;;;0.40;0.20;;;;;;;13.31;68.08;100544.68;111279;1195;95107;-75
2021/10/04 00:49:47;;;;;;;0.40;0.20;;;;;;;13.28;68.05;100546.56;111466;1193;94884;-75
2021/10/04 00:52:14;;;;;;;0.40;0.20;;;;;;;13.31;68.12;100544.52;111313;1193;138320;-75
2021/10/04 00:54:40;;;;;;;0.40;0.20;;;;;;;13.34;68.13;100544.58;111339;1193;94573;-76
2021/10/04 00:57:07;;;;;;;0.40;0.20;;;;;;;13.34;68.03;100544.56;111308;1193;137396;-75
2021/10/04 00:59:34;;;;;;;0.40;0.20;;;;;;;13.34;68.09;100540.29;111408;1193;108403;-76
2021/10/04 01:02:01;;;;;;;0.40;0.20;;;;;;;13.34;68.08;100538.17;111449;1194;94483;-76
2021/10/04 01:04:28;;;;;;;0.40;0.20;;;;;;;13.30;68.22;100536.17;111585;1193;137538;-75
2021/10/04 01:06:57;;;;;;;0.40;0.20;;;;;;;13.25;68.32;100538.30;111326;1195;105166;-76
2021/10/04 01:09:24;;;;;;;0.40;0.30;;;;;;;13.25;68.41;100534.77;111219;1193;137787;-76
2021/10/04 01:11:52;;;;;;;0.40;0.20;;;;;;;13.27;68.40;100532.54;111459;1194;95160;-75
2021/10/04 01:14:19;;;;;;;0.40;0.20;;;;;;;13.26;68.51;100533.44;111319;1193;138220;-77
2021/10/04 01:16:46;;;;;;;0.40;0.30;;;;;;;13.29;68.42;100532.46;111397;1193;94046;-76
2021/10/04 01:19:13;;;;;;;0.40;0.20;;;;;;;13.31;68.41;100531.64;111376;1193;94458;-75
2021/10/04 01:21:40;;;;;;;0.40;0.20;;;;;;;13.33;68.41;100531.59;111312;1193;141168;-75
2021/10/04 01:24:08;;;;;;;0.40;0.20;;;;;;;13.33;68.37;100529.64;111375;1194;94887;-75
2021/10/04 01:26:35;;;;;;;0.40;0.20;;;;;;;13.32;68.45;100531.45;111519;1197;138552;-75
2021/10/04 01:29:03;;;;;;;0.40;0.30;;;;;;;13.33;68.49;100531.23;111480;1195;94233;-75
2021/10/04 01:31:30;;;;;;;0.40;0.20;;;;;;;13.37;68.45;100527.89;111462;1193;94059;-75
2021/10/04 01:33:58;;;;;;;0.40;0.20;;;;;;;13.41;68.31;100530.80;111250;1195;138577;-75
2021/10/04 01:36:26;;;;;;;0.40;0.20;;;;;;;13.42;68.27;100530.42;111389;1193;94585;-76
2021/10/04 01:38:56;;;;;;;0.40;0.20;;;;;;;13.40;68.11;100528.36;111299;1193;138733;-75
2021/10/04 01:41:22;;;;;;;0.40;0.20;;;;;;;13.42;68.18;100522.57;111482;1193;95774;-75
2021/10/04 01:43:50;;;;;;;0.40;0.20;;;;;;;13.46;68.08;100525.45;111396;1195;93986;-75
2021/10/04 01:46:17;;;;;;;0.40;0.20;;;;;;;13.48;68.14;100525.02;111383;1193;137750;-75
2021/10/04 01:48:45;;;;;;;0.40;0.20;;;;;;;13.44;68.04;100524.97;111386;1193;94092;-76
2021/10/04 01:51:12;;;;;;;0.40;0.20;;;;;;;13.46;68.02;100529.92;111293;1193;138026;-76
2021/10/04 01:53:39;;;;;;;0.40;0.20;;;;;;;13.49;67.96;100526.41;111500;1193;94819;-76
2021/10/04 01:56:06;;;;;;;0.40;0.20;;;;;;;13.53;67.80;100524.14;111166;1196;95025;-76
2021/10/04 01:58:33;;;;;;;0.40;0.20;;;;;;;13.52;67.92;100526.66;111139;1195;137703;-75
2021/10/04 02:01:02;;;;;;;0.40;0.30;;;;;;;13.56;67.87;100525.30;111621;1193;94313;-77
2021/10/04 02:03:29;;;;;;;0.40;0.20;;;;;;;13.57;67.68;100524.89;111266;1193;138428;-76
2021/10/04 02:05:57;;;;;;;0.40;0.20;;;;;;;13.58;67.76;100528.41;111336;1193;94480;-77
2021/10/04 02:08:24;;;;;;;0.40;0.20;;;;;;;13.59;67.61;100526.23;111251;1193;138855;-76
2021/10/04 02:10:51;;;;;;;0.40;0.20;;;;;;;13.58;67.54;100529.14;111322;1193;94549;-75
2021/10/04 02:13:18;;;;;;;0.40;0.20;;;;;;;13.59;67.63;100530.17;111389;1193;94316;-74
2021/10/04 02:15:45;;;;;;;0.40;0.20;;;;;;;13.56;67.61;100524.91;111253;1193;137762;-76
2021/10/04 02:18:12;;;;;;;0.40;0.20;;;;;;;13.54;67.74;100527.84;111392;1193;94505;-74
2021/10/04 02:20:41;;;;;;;0.40;0.20;;;;;;;13.52;67.58;100522.58;111157;1193;138074;-75
2021/10/04 02:23:10;;;;;;;0.40;0.20;;;;;;;13.54;67.73;100526.41;111420;1193;94049;-75
2021/10/04 02:25:39;;;;;;;0.40;0.20;;;;;;;13.57;67.70;100525.23;111417;1193;108669;-76
2021/10/04 02:28:07;;;;;;;0.40;0.20;;;;;;;13.58;67.74;100523.77;111408;1193;137990;-75
2021/10/04 02:30:34;;;;;;;0.40;0.20;;;;;;;13.55;67.70;100525.30;111313;1196;94613;-75
2021/10/04 02:33:01;;;;;;;0.40;0.20;;;;;;;13.58;67.80;100523.42;111321;1194;137834;-75
2021/10/04 02:35:28;;;;;;;0.40;0.20;;;;;;;13.59;67.55;100526.40;111394;1193;94424;-75
2021/10/04 02:37:55;;;;;;;0.40;0.20;;;;;;;13.60;67.47;100530.82;111310;1195;95153;-76
2021/10/04 02:40:22;;;;;;;0.40;0.20;;;;;;;13.60;67.56;100529.77;111238;1195;138583;-76
2021/10/04 02:42:50;;;;;;;0.40;0.20;;;;;;;13.60;67.59;100528.52;111258;1195;94531;-77
2021/10/04 02:45:18;;;;;;;0.40;0.20;;;;;;;13.61;67.39;100529.73;111367;1193;139153;-75
2021/10/04 02:47:47;;;;;;;0.40;0.20;;;;;;;13.63;67.39;100528.58;111390;1193;94471;-75
2021/10/04 02:50:18;;;;;;;0.40;0.20;;;;;;;13.66;67.38;100525.63;111416;1194;93994;-77
2021/10/04 02:52:45;;;;;;;0.40;0.20;;;;;;;13.67;67.27;100527.54;111518;1193;138660;-76
2021/10/04 02:55:11;;;;;;;0.40;0.20;;;;;;;13.70;67.28;100533.48;111304;1199;93964;-76
2021/10/04 02:57:38;;;;;;;0.40;0.20;;;;;;;13.75;67.15;100524.58;111195;1195;140941;-75
2021/10/04 03:00:17;;;;;;;0.40;0.20;;;;;;;13.73;67.11;100526.77;111319;1198;94144;-75
2021/10/04 03:02:43;;;;;;;0.40;0.20;;;;;;;13.71;67.14;100531.86;111325;1193;137614;-75
2021/10/04 03:05:10;;;;;;;0.40;0.20;;;;;;;13.68;67.12;100538.76;111168;1197;94411;-75
2021/10/04 03:07:37;;;;;;;0.40;0.20;;;;;;;13.68;67.03;100536.23;111371;1193;94940;-76
2021/10/04 03:10:04;;;;;;;0.40;0.20;;;;;;;13.70;67.26;100533.50;111348;1193;138935;-75
2021/10/04 03:12:31;;;;;;;0.40;0.20;;;;;;;13.68;67.10;100532.14;111366;1195;94510;-75
2021/10/04 03:14:59;;;;;;;0.40;0.20;;;;;;;13.66;67.30;100531.34;111202;1195;138576;-75
2021/10/04 03:17:26;;;;;;;0.40;0.20;;;;;;;13.68;67.19;100530.73;111301;1193;108411;-75
2021/10/04 03:19:52;;;;;;;0.40;0.20;;;;;;;13.70;67.17;100529.73;111434;1194;94626;-75
2021/10/04 03:22:19;;;;;;;0.40;0.20;;;;;;;13.70;67.14;100529.40;111289;1194;138593;-76
2021/10/04 03:24:46;;;;;;;0.40;0.20;;;;;;;13.67;67.28;100526.31;111410;1193;94205;-76
2021/10/04 03:27:12;;;;;;;0.40;0.20;;;;;;;13.72;67.16;100526.64;111288;1195;138390;-76
2021/10/04 03:29:39;;;;;;;0.40;0.20;;;;;;;13.75;67.10;100525.10;111290;1195;94007;-74
2021/10/04 03:32:06;;;;;;;0.40;0.20;;;;;;;13.73;67.12;100522.33;111437;1194;108151;-74
2021/10/04 03:34:33;;;;;;;0.40;0.20;;;;;;;13.70;67.12;100519.92;111309;1196;138135;-76
2021/10/04 03:37:00;;;;;;;0.40;0.20;;;;;;;13.68;67.20;100522.86;111390;1193;94991;-77
2021/10/04 03:39:28;;;;;;;0.40;0.20;;;;;;;13.71;67.15;100521.15;111213;1194;139139;-76
2021/10/04 03:41:54;;;;;;;0.40;0.20;;;;;;;13.76;67.01;100522.23;111404;1193;94432;-75
2021/10/04 03:44:21;;;;;;;0.40;0.20;;;;;;;13.78;66.90;100520.89;111417;1193;93982;-74
2021/10/04 03:46:48;;;;;;;0.40;0.20;;;;;;;13.77;66.85;100526.61;111287;1193;138379;-75
2021/10/04 03:49:15;;;;;;;0.40;0.20;;;;;;;13.74;66.95;100525.30;111383;1193;94124;-75
2021/10/04 03:51:42;;;;;;;0.40;0.20;;;;;;;13.72;66.99;100518.98;111300;1195;139506;-76
2021/10/04 03:54:09;;;;;;;0.40;0.20;;;;;;;13.69;67.05;100514.59;111382;1193;107556;-75
2021/10/04 03:56:35;;;;;;;0.40;0.20;;;;;;;13.67;67.09;100517.73;111155;1195;139288;-76
2021/10/04 03:59:02;;;;;;;0.40;0.20;;;;;;;13.68;67.11;100521.95;111471;1193;94029;-75
2021/10/04 04:01:29;;;;;;;0.40;0.20;;;;;;;13.75;67.10;100519.40;111406;1195;94024;-75
2021/10/04 04:03:56;;;;;;;0.40;0.20;;;;;;;13.74;66.90;100518.38;111313;1193;139005;-74
2021/10/04 04:06:22;;;;;;;0.40;0.20;;;;;;;13.75;66.91;100523.50;111334;1194;107457;-75
2021/10/04 04:08:49;;;;;;;0.40;0.20;;;;;;;13.74;66.82;100525.30;111211;1193;138762;-75
2021/10/04 04:11:15;;;;;;;0.40;0.20;;;;;;;13.76;66.87;100524.18;111388;1194;94408;-75
2021/10/04 04:13:42;;;;;;;0.40;0.20;;;;;;;13.77;66.67;100523.08;111438;1194;94592;-75
2021/10/04 04:16:10;;;;;;;0.40;0.20;;;;;;;13.74;66.87;100527.30;111316;1193;137174;-75
2021/10/04 04:18:36;;;;;;;0.40;0.20;;;;;;;13.68;66.98;100527.16;111499;1194;94383;-76
2021/10/04 04:21:04;;;;;;;0.40;0.20;;;;;;;13.64;67.07;100529.80;111223;1195;138097;-75
2021/10/04 04:23:30;;;;;;;0.40;0.20;;;;;;;13.62;67.21;100530.60;111457;1193;95150;-75
2021/10/04 04:25:57;;;;;;;0.40;0.20;;;;;;;13.59;67.22;100528.90;111293;1196;94050;-75
2021/10/04 04:28:24;;;;;;;0.40;0.20;;;;;;;13.52;67.33;100524.51;111292;1194;137708;-75
2021/10/04 04:30:51;;;;;;;0.40;0.20;;;;;;;13.49;67.46;100524.81;111462;1195;93999;-75
2021/10/04 04:33:17;;;;;;;0.40;0.20;;;;;;;13.47;67.54;100527.71;111317;1193;138482;-75
2021/10/04 04:35:44;;;;;;;0.40;0.20;;;;;;;13.44;67.59;100527.33;111411;1193;94491;-75
2021/10/04 04:38:11;;;;;;;0.40;0.20;;;;;;;13.38;67.86;100530.39;111320;1195;108955;-75
2021/10/04 04:40:38;;;;;;;0.40;0.20;;;;;;;13.37;67.81;100528.27;111198;1193;138950;-75
2021/10/04 04:43:04;;;;;;;0.40;0.20;;;;;;;13.35;67.95;100527.77;111447;1193;94040;-77
2021/10/04 04:45:31;;;;;;;0.40;0.20;;;;;;;13.35;67.93;100526.18;111368;1194;137439;-75
2021/10/04 04:47:57;;;;;;;0.40;0.20;;;;;;;13.33;68.10;100524.81;111286;1195;93995;-75
2021/10/04 04:50:24;;;;;;;0.40;0.20;;;;;;;13.32;67.99;100526.64;111253;1193;139783;-75
2021/10/04 04:52:51;;;;;;;0.40;0.20;;;;;;;13.29;68.07;100524.96;111305;1195;94443;-77
2021/10/04 04:55:18;;;;;;;0.40;0.20;;;;;;;13.29;68.17;100520.85;111451;1195;94099;-75
2021/10/04 04:57:45;;;;;;;0.40;0.20;;;;;;;13.26;68.11;100524.52;111185;1195;137247;-75
2021/10/04 05:00:13;;;;;;;0.40;0.20;;;;;;;13.25;68.27;100527.05;111464;1193;94527;-75
2021/10/04 05:02:42;;;;;;;0.40;0.20;;;;;;;13.27;68.32;100528.23;111530;1193;138007;-75
2021/10/04 05:05:10;;;;;;;0.40;0.20;;;;;;;13.30;68.23;100532.04;111521;1194;94378;-76
2021/10/04 05:07:37;;;;;;;0.40;0.20;;;;;;;13.33;68.20;100530.52;111496;1194;94543;-75
2021/10/04 05:10:05;;;;;;;0.40;0.20;;;;;;;13.33;68.19;100532.86;111244;1197;137681;-75
2021/10/04 05:12:33;;;;;;;0.40;0.20;;;;;;;13.36;68.22;100536.12;111682;1194;108173;-75
2021/10/04 05:15:00;;;;;;;0.40;0.20;;;;;;;13.42;68.01;100530.26;111475;1193;138702;-76
2021/10/04 05:17:26;;;;;;;0.40;0.20;;;;;;;13.47;67.91;100534.70;111578;1193;94890;-76
2021/10/04 05:19:53;;;;;;;0.40;0.20;;;;;;;13.49;67.79;100539.08;111481;1195;93959;-78
2021/10/04 05:22:19;;;;;;;0.40;0.20;;;;;;;13.47;67.79;100540.91;111422;1194;137877;-76
2021/10/04 05:24:46;;;;;;;0.40;0.20;;;;;;;13.48;67.73;100544.28;111517;1195;93989;-76
2021/10/04 05:27:15;;;;;;;0.40;0.20;;;;;;;13.47;67.71;100546.64;111500;1193;138921;-75
2021/10/04 05:29:42;;;;;;;0.40;0.20;;;;;;;13.44;67.89;100549.60;111556;1193;95799;-75
2021/10/04 05:32:09;;;;;;;0.40;0.20;;;;;;;13.45;67.83;100549.92;111474;1193;94085;-76
2021/10/04 05:34:36;;;;;;;0.40;0.20;;;;;;;13.45;67.78;100549.39;111451;1195;139458;-75
2021/10/04 05:37:03;;;;;;;0.40;0.20;;;;;;;13.45;67.74;100552.41;111585;1194;94291;-75
2021/10/04 05:39:30;;;;;;;0.40;0.20;;;;;;;13.49;67.85;100552.08;111246;1195;138400;-75
2021/10/04 05:41:57;;;;;;;0.40;0.20;;;;;;;13.52;67.65;100550.39;111747;1193;94046;-74
2021/10/04 05:44:23;;;;;;;0.40;0.20;;;;;;;13.51;67.80;100549.67;111421;1193;138298;-75
2021/10/04 05:46:50;;;;;;;0.40;0.20;;;;;;;13.53;67.79;100551.05;111401;1193;94467;-75
2021/10/04 05:49:17;;;;;;;0.40;0.20;;;;;;;13.57;67.74;100550.41;111475;1193;94196;-76
2021/10/04 05:51:43;;;;;;;0.40;0.20;;;;;;;13.57;67.63;100556.27;111198;1194;137898;-76
2021/10/04 05:54:10;;;;;;;0.40;0.20;;;;;;;13.56;67.62;100554.35;111360;1194;94486;-75
2021/10/04 05:56:36;;;;;;;0.40;0.20;;;;;;;13.55;67.68;100555.98;111350;1193;138424;-75
2021/10/04 05:59:03;;;;;;;0.40;0.20;;;;;;;13.56;67.62;100554.70;111314;1195;94104;-75
2021/10/04 06:01:30;;;;;;;0.40;0.20;;;;;;;13.61;67.61;100560.42;111432;1193;94094;-74
2021/10/04 06:03:57;;;;;;;0.40;0.20;;;;;;;13.63;67.55;100560.70;111495;1193;139748;-76
2021/10/04 06:06:24;;;;;;;0.40;0.20;;;;;;;13.68;67.42;100558.73;111383;1194;94461;-75
2021/10/04 06:08:50;;;;;;;0.40;0.20;;;;;;;13.69;67.28;100559.22;111392;1195;137843;-74
2021/10/04 06:11:17;;;;;;;0.40;0.20;;;;;;;13.72;67.23;100560.00;111292;1195;108433;-77
2021/10/04 06:13:44;;;;;;;0.40;0.20;;;;;;;13.79;67.15;100561.37;111512;1194;94461;-76
2021/10/04 06:16:10;;;;;;;0.40;0.20;;;;;;;13.90;67.08;100558.29;111340;1195;138117;-75
2021/10/04 06:18:37;;;;;;;0.40;0.20;;;;;;;13.97;67.13;100559.62;111393;1193;94404;-75
2021/10/04 06:21:04;;;;;;;0.40;0.20;;;;;;;14.01;66.74;100562.48;111359;1194;137764;-75
2021/10/04 06:23:31;;;;;;;0.40;0.20;;;;;;;14.07;66.69;100562.27;111580;1195;93966;-75
2021/10/04 06:25:57;;;;;;;0.40;0.20;;;;;;;14.13;66.63;100563.82;111396;1194;95928;-75
2021/10/04 06:28:24;;;;;;;0.40;0.20;;;;;;;14.15;66.18;100560.89;111196;1201;138522;-75
2021/10/04 06:30:51;;;;;;;0.40;0.20;;;;;;;14.19;66.13;100564.50;111341;1194;94590;-75
2021/10/04 06:33:17;;;;;;;0.40;0.20;;;;;;;14.20;65.89;100564.09;111351;1193;137976;-75
2021/10/04 06:35:46;;;;;;;0.40;0.20;;;;;;;14.27;66.03;100562.39;111398;1194;94103;-76
2021/10/04 06:38:13;;;;;;;0.40;0.20;;;;;;;14.36;65.70;100561.16;111390;1194;94063;-76
2021/10/04 06:40:40;;;;;;;0.40;0.20;;;;;;;14.42;65.24;100561.64;111306;1195;137084;-75
2021/10/04 06:43:08;;;;;;;0.40;0.20;;;;;;;14.48;65.38;100562.46;111394;1194;94028;-74
2021/10/04 06:45:34;;;;;;;0.40;0.20;;;;;;;14.60;65.17;100565.23;111389;1194;138456;-75
2021/10/04 06:48:01;;;;;;;0.40;0.10;;;;;;;14.73;64.91;100567.23;111305;1195;94793;-75
2021/10/04 06:50:27;;;;;;;0.40;0.20;;;;;;;14.83;64.39;100568.96;111207;1193;138591;-76
2021/10/04 06:52:54;;;;;;;0.40;0.20;;;;;;;14.91;63.70;100567.77;111457;1194;94091;-76
2021/10/04 06:55:21;;;;;;;0.40;0.20;;;;;;;14.92;63.85;100571.06;111485;1196;94068;-74
2021/10/04 06:57:47;;;;;;;0.40;0.10;;;;;;;14.99;63.81;100570.97;111107;1195;138041;-75
2021/10/04 07:00:21;;;;;;;0.40;0.20;;;;;;;15.10;63.63;100574.98;111481;1194;94021;-75
2021/10/04 07:02:49;;;;;;;0.40;0.20;;;;;;;15.21;63.56;100577.73;111414;1194;137559;-76
2021/10/04 07:05:18;;;;;;;0.40;0.20;;;;;;;15.26;63.42;100571.45;111301;1195;108890;-77
2021/10/04 07:07:46;;;;;;;0.40;0.20;;;;;;;15.32;63.46;100578.68;111469;1195;107929;-78
2021/10/04 07:10:13;;;;;;;0.40;0.20;;;;;;;15.42;62.42;100578.83;111151;1195;139038;-75
2021/10/04 07:12:40;;;;;;;0.40;0.20;;;;;;;15.47;62.18;100581.28;111403;1194;94022;-75
2021/10/04 07:15:07;;;;;;;0.40;0.20;;;;;;;15.53;62.33;100582.07;111280;1201;138553;-75
2021/10/04 07:17:34;;;;;;;0.40;0.20;;;;;;;15.63;62.09;100584.50;111510;1195;93968;-76
2021/10/04 07:20:00;;;;;;;0.40;0.20;;;;;;;15.69;61.85;100588.39;111375;1195;94930;-76
2021/10/04 07:22:27;;;;;;;0.40;0.20;;;;;;;15.78;61.31;100589.23;111250;1194;138351;-76
2021/10/04 07:24:53;;;;;;;0.40;0.20;;;;;;;15.81;60.82;100589.30;111250;1195;94460;-76
2021/10/04 07:27:20;;;;;;;0.40;0.10;;;;;;;15.81;61.26;100586.42;111284;1195;137754;-76
2021/10/04 07:29:47;;;;;;;0.40;0.20;;;;;;;15.87;61.10;100592.27;111444;1195;94788;-76
2021/10/04 07:32:13;;;;;;;0.40;0.20;;;;;;;15.96;60.96;100593.64;111346;1195;94025;-75
2021/10/04 07:34:41;;;;;;;0.40;0.10;;;;;;;16.06;61.71;100589.95;111190;1195;138711;-76
2021/10/04 07:37:08;;;;;;;0.40;0.20;;;;;;;16.25;61.04;100596.05;111452;1195;94531;-75
2021/10/04 07:39:35;;;;;;;0.40;0.10;;;;;;;16.33;60.27;100598.38;111263;1196;138452;-74
2021/10/04 07:42:02;;;;;;;0.40;0.20;;;;;;;16.35;59.86;100592.90;111575;1193;94912;-76
2021/10/04 07:44:29;;;;;;;0.40;0.20;;;;;;;16.43;60.30;100597.20;111271;1193;137836;-76
2021/10/04 07:46:57;;;;;;;0.40;0.20;;;;;;;16.51;59.53;100602.38;111476;1194;94437;-75
2021/10/04 07:49:25;;;;;;;0.40;0.10;;;;;;;16.48;59.25;100602.51;111172;1195;108475;-76
2021/10/04 07:51:55;;;;;;;0.40;0.10;;;;;;;16.50;59.21;100600.60;111324;1194;138565;-76
2021/10/04 07:54:22;;;;;;;0.40;0.20;;;;;;;16.58;59.65;100601.16;111619;1193;94515;-75
2021/10/04 07:56:49;;;;;;;0.40;0.10;;;;;;;16.71;59.26;100605.52;111258;1195;138733;-76
2021/10/04 07:59:16;;;;;;;0.40;0.10;;;;;;;16.77;58.59;100609.54;111329;1195;94381;-76
2021/10/04 08:01:42;;;;;;;0.40;0.10;;;;;;;16.84;58.69;100601.84;111261;1197;94063;-77
2021/10/04 08:04:10;;;;;;;0.40;0.10;;;;;;;16.94;59.09;100600.15;111130;1195;137799;-76
2021/10/04 08:06:37;;;;;;;0.40;0.10;;;;;;;17.04;58.99;100597.48;111381;1194;94408;-77
2021/10/04 08:09:04;;;;;;;0.40;0.10;;;;;;;17.13;58.41;100595.97;111292;1195;137893;-76
2021/10/04 08:11:30;;;;;;;0.40;0.10;;;;;;;17.17;58.11;100594.36;111235;1195;108772;-75
2021/10/04 08:13:57;;;;;;;0.40;0.10;;;;;;;17.24;58.38;100596.16;111363;1196;94751;-75
2021/10/04 08:16:24;;;;;;;0.40;0.10;;;;;;;17.36;58.63;100596.58;111280;1195;138042;-76
2021/10/04 08:18:52;;;;;;;0.40;0.10;;;;;;;17.51;57.96;100603.91;111436;1194;94082;-77
2021/10/04 08:21:20;;;;;;;0.40;0.20;;;;;;;17.62;57.47;100602.95;111141;1195;137609;-77
2021/10/04 08:23:48;;;;;;;0.40;0.10;;;;;;;17.72;57.52;100602.60;111481;1194;94528;-76
2021/10/04 08:26:16;;;;;;;0.40;0.10;;;;;;;17.83;57.55;100603.64;111453;1194;94543;-78
2021/10/04 08:28:43;;;;;;;0.40;0.10;;;;;;;17.91;56.76;100602.88;111288;1194;137540;-76
2021/10/04 08:31:11;;;;;;;0.40;0.10;;;;;;;17.92;56.22;100603.94;111473;1194;108607;-77
2021/10/04 08:33:37;;;;;;;0.40;0.10;;;;;;;17.94;56.77;100601.70;111408;1193;137938;-78
2021/10/04 08:36:05;;;;;;;0.40;0.10;;;;;;;18.01;56.93;100605.98;111488;1194;93999;-78
2021/10/04 08:38:32;;;;;;;0.40;0.10;;;;;;;18.02;56.20;100610.23;111192;1195;138561;-78
2021/10/04 08:40:59;;;;;;;0.40;0.10;;;;;;;18.06;56.30;100607.69;111584;1193;94598;-75
2021/10/04 08:43:25;;;;;;;0.40;0.10;;;;;;;18.14;56.04;100607.97;111331;1196;94091;-78
2021/10/04 08:45:57;;;;;;;0.40;0.10;;;;;;;18.26;56.71;100605.13;111362;1195;137606;-75
2021/10/04 08:48:25;;;;;;;0.40;0.10;;;;;;;18.40;55.87;100606.53;111668;1195;94073;-78
2021/10/04 08:50:55;;;;;;;0.40;0.10;;;;;;;18.60;54.93;100610.46;111330;1198;137800;-80
2021/10/04 08:53:23;;;;;;;0.40;0.10;;;;;;;18.94;54.20;100607.11;111599;1195;108787;-76
2021/10/04 08:55:50;;;;;;;0.40;0.10;;;;;;;19.29;53.58;100606.13;111491;1193;107683;-77
2021/10/04 08:58:17;;;;;;;0.40;0.10;;;;;;;19.59;52.60;100607.45;111379;1193;138290;-77
2021/10/04 09:00:44;;;;;;;0.40;0.10;;;;;;;19.82;52.96;100604.76;111407;1194;94422;-78
2021/10/04 09:03:11;;;;;;;0.40;0.10;;;;;;;19.99;51.47;100605.35;111077;1195;138046;-75
2021/10/04 09:05:43;;;;;;;0.40;0.10;;;;;;;20.42;51.01;100604.46;111772;1195;94567;-75
2021/10/04 09:08:12;;;;;;;0.40;0.10;;;;;;;20.68;50.85;100602.61;111395;1199;94304;-76
2021/10/04 09:10:42;;;;;;;0.40;0.10;;;;;;;20.73;51.13;100603.05;111556;1194;137975;-75
2021/10/04 09:13:14;;;;;;;0.40;0.10;;;;;;;20.67;50.15;100601.79;111829;1193;108720;-75
2021/10/04 09:15:42;;;;;;;0.40;0.10;;;;;;;20.88;50.63;100600.08;111311;1201;138750;-76
2021/10/04 09:18:14;;;;;;;0.40;0.10;;;;;;;21.18;49.66;100597.19;111548;1194;94022;-74
2021/10/04 09:21:01;;;;;;;0.40;0.10;;;;;;;21.80;49.19;100595.46;111397;1193;137456;-75
2021/10/04 09:23:32;;;;;;;0.40;0.10;;;;;;;22.45;45.53;100592.52;111317;1199;108898;-75
2021/10/04 09:26:05;;;;;;;0.40;0.10;;;;;;;22.31;45.73;100589.85;111302;1193;108734;-75
2021/10/04 09:28:37;;;;;;;0.40;0.10;;;;;;;22.49;45.28;100591.85;111338;1193;137511;-76
2021/10/04 09:31:19;;;;;;;0.40;0.00;;;;;;;22.61;45.29;100593.73;111434;1195;94394;-76
2021/10/04 09:34:06;;;;;;;0.40;0.10;;;;;;;23.02;45.47;100590.26;111302;1193;138288;-76
2021/10/04 09:36:34;;;;;;;0.40;0.00;;;;;;;23.21;43.69;100592.52;111557;1193;107759;-76
2021/10/04 09:39:21;;;;;;;0.40;0.00;;;;;;;23.60;43.39;100591.85;111430;1194;138046;-75
2021/10/04 09:42:07;;;;;;;0.40;0.10;;;;;;;24.66;41.67;100590.33;111368;1194;94520;-76
2021/10/04 09:44:55;;;;;;;0.40;0.00;;;;;;;25.84;39.89;100587.46;111453;1194;137448;-76
2021/10/04 09:47:31;;;;;;;0.40;0.00;;;;;;;26.97;36.81;100589.54;111458;1195;107384;-77
2021/10/04 09:50:28;;;;;;;0.40;0.00;;;;;;;28.26;36.04;100586.55;111477;1196;94007;-77
2021/10/04 09:53:03;;;;;;;0.40;0.00;;;;;;;29.60;33.01;100591.52;111209;1202;136061;-76
2021/10/04 09:55:33;;;;;;;0.40;0.00;;;;;;;30.38;31.26;100584.31;111323;1195;99762;-77
2021/10/04 09:58:18;;;;;;;0.40;0.00;;;;;;;31.03;30.12;100581.91;111338;1193;137314;-76
2021/10/04 10:00:55;;;;;;;0.40;0.00;;;;;;;31.56;30.12;100578.98;111712;1193;94434;-79
2021/10/04 10:03:26;;;;;;;0.40;0.00;;;;;;;32.34;27.97;100579.99;111520;1195;137826;-77
2021/10/04 10:05:55;;;;;;;0.40;0.00;;;;;;;32.86;26.83;100582.58;111625;1193;100564;-76
2021/10/04 10:08:24;;;;;;;0.40;0.00;;;;;;;32.76;26.10;100585.05;111602;1195;101123;-78
2021/10/04 10:10:54;;;;;;;0.40;0.00;;;;;;;32.86;26.76;100583.55;111650;1193;137471;-79
2021/10/04 10:13:22;;;;;;;0.40;0.00;;;;;;;33.46;26.60;100584.77;111450;1195;95438;-76
2021/10/04 10:16:02;;;;;;;0.40;0.00;;;;;;;33.72;26.43;100582.55;111464;1195;137425;-77
2021/10/04 10:18:42;;;;;;;0.40;0.00;;;;;;;33.93;25.78;100582.59;111511;1194;100806;-77
2021/10/04 10:21:19;;;;;;;0.40;0.00;;;;;;;34.53;25.84;100585.42;111433;1193;137808;-76
2021/10/04 10:23:52;;;;;;;0.40;0.00;;;;;;;34.83;24.93;100586.67;111550;1194;95007;-76
2021/10/04 10:26:26;;;;;;;0.40;0.00;;;;;;;33.82;26.04;100582.16;111768;1194;100083;-77
2021/10/04 10:29:21;;;;;;;0.40;0.00;;;;;;;32.64;27.61;100579.52;111504;1193;139162;-77
2021/10/04 10:31:57;;;;;;;0.40;0.00;;;;;;;31.77;28.18;100577.92;111516;1193;94906;-76
2021/10/04 10:34:30;;;;;;;0.40;0.00;;;;;;;30.46;30.49;100575.39;111574;1193;138620;-77
2021/10/04 10:36:57;;;;;;;0.40;0.00;;;;;;;29.20;31.72;100576.74;111452;1193;99971;-76
2021/10/04 10:39:33;;;;;;;0.40;0.00;;;;;;;28.10;33.51;100574.53;111348;1194;138023;-77
2021/10/04 10:42:27;;;;;;;0.40;0.00;;;;;;;27.43;35.71;100568.08;111603;1194;95424;-76
2021/10/04 10:44:57;;;;;;;0.40;0.00;;;;;;;26.80;36.06;100576.58;111612;1193;138149;-78
2021/10/04 10:47:43;;;;;;;0.40;0.00;;;;;;;26.04;37.06;100578.44;111725;1197;108307;-76
2021/10/04 10:50:17;;;;;;;0.40;0.00;;;;;;;25.51;39.09;100586.51;111775;1194;109576;-76
2021/10/04 10:52:46;;;;;;;0.40;0.00;;;;;;;25.14;39.51;100583.23;111684;1195;138811;-77
2021/10/04 10:55:20;;;;;;;0.40;0.00;;;;;;;24.59;40.22;100582.73;111923;1193;94887;-76
2021/10/04 10:57:47;;;;;;;0.40;0.00;;;;;;;24.20;41.42;100582.05;111784;1197;139006;-74
2021/10/04 11:00:14;;;;;;;0.40;0.00;;;;;;;23.95;42.06;100583.90;112039;1194;95340;-76
2021/10/04 11:03:00;;;;;;;0.40;0.00;;;;;;;23.76;42.85;100583.33;111401;1193;138740;-76
2021/10/04 11:05:39;;;;;;;0.40;0.00;;;;;;;23.50;43.34;100580.36;111351;1196;94931;-77
2021/10/04 11:08:31;;;;;;;0.40;0.00;;;;;;;23.27;43.55;100578.48;111504;1193;108670;-75
2021/10/04 11:10:58;;;;;;;0.40;0.00;;;;;;;23.06;44.72;100568.59;111297;1195;139036;-78
2021/10/04 11:13:26;;;;;;;0.40;0.00;;;;;;;22.91;44.66;100570.66;111447;1193;95396;-77
2021/10/04 11:15:58;;;;;;;0.40;0.00;;;;;;;22.84;45.27;100568.41;111291;1193;138618;-76
2021/10/04 11:18:37;;;;;;;0.40;0.10;;;;;;;22.69;45.50;100572.31;111421;1193;108875;-76